createdAt,value
2023-05-16T00:09:31.891Z,10.2
2023-05-16T00:49:34.677Z,9.8
2023-05-16T01:09:35.638Z,9.1
2023-05-16T01:29:36.884Z,8.9
2023-05-16T01:39:37.402Z,8.9
2023-05-16T02:19:39.826Z,9
2023-05-16T02:29:40.557Z,9
2023-05-16T02:39:41.081Z,9
2023-05-16T02:49:41.624Z,9
2023-05-16T02:59:41.811Z,8.9
2023-05-16T03:09:42.168Z,8.9
2023-05-16T03:19:43.257Z,8.8
2023-05-16T03:29:43.470Z,8.6
2023-05-16T03:39:43.654Z,8.4
2023-05-16T03:49:44.622Z,8.1
2023-05-16T04:13:34.280Z,7.7
2023-05-16T04:22:56.556Z,7.5
2023-05-16T04:32:57.008Z,7.5
2023-05-16T04:42:57.865Z,7.5
2023-05-16T04:52:58.437Z,7.5
2023-05-16T05:02:58.708Z,7.7
2023-05-16T05:12:59.216Z,7.9
2023-05-16T05:22:59.682Z,8.1
2023-05-16T05:33:00.694Z,8.3
2023-05-16T05:43:01.588Z,8.5
2023-05-16T05:53:02.345Z,8.8
2023-05-16T06:03:03.013Z,9
2023-05-16T06:13:03.462Z,9.2
2023-05-16T06:23:04.237Z,9.6
2023-05-16T06:33:05.225Z,10.1
2023-05-16T06:43:05.299Z,10.3
2023-05-16T06:53:06.344Z,10.2
2023-05-16T07:03:07.020Z,10.4
2023-05-16T07:13:07.413Z,10.7
2023-05-16T07:23:07.841Z,10.9
2023-05-16T07:33:08.123Z,11.3
2023-05-16T07:43:08.563Z,11
2023-05-16T08:03:10.022Z,10.7
2023-05-16T08:13:10.999Z,11.6
2023-05-16T08:23:11.607Z,12.2
2023-05-16T08:33:12.706Z,12.2
2023-05-16T08:43:13.111Z,11.7
2023-05-16T08:53:13.207Z,11.9
2023-05-16T09:03:14.151Z,12.1
2023-05-16T09:13:14.427Z,12.2
2023-05-16T09:23:14.752Z,13
2023-05-16T09:33:15.760Z,12.6
2023-05-16T09:43:17.263Z,12.7
2023-05-16T10:03:18.552Z,13.1
2023-05-16T10:13:19.475Z,13.7
2023-05-16T10:23:20.473Z,14
2023-05-16T10:33:21.380Z,14.3
2023-05-16T10:43:21.599Z,14.9
2023-05-16T11:13:23.832Z,13.6
2023-05-16T11:33:25.306Z,14.5
2023-05-16T11:43:25.649Z,15.2
2023-05-16T11:53:26.085Z,15.2
2023-05-16T12:13:27.351Z,14.4
2023-05-16T12:33:28.686Z,13.8
2023-05-16T12:53:29.726Z,14.7
2023-05-16T13:03:30.052Z,14.7
2023-05-16T13:33:31.712Z,14.8
2023-05-16T13:43:32.303Z,14.8
2023-05-16T13:53:32.542Z,14.7
2023-05-16T14:13:34.484Z,14.8
2023-05-16T14:23:35.375Z,14.6
2023-05-16T14:33:36.307Z,14.5
2023-05-16T14:53:37.233Z,13.4
2023-05-16T15:03:51.093Z,13.4
2023-05-16T15:13:37.998Z,13.6
2023-05-16T15:23:38.618Z,13.5
2023-05-16T15:33:39.251Z,14.2
2023-05-16T15:53:40.743Z,13.7
2023-05-16T16:03:41.926Z,13.5
2023-05-16T16:13:42.518Z,13.6
2023-05-16T16:23:42.747Z,13.4
2023-05-16T16:33:43.649Z,13.2
2023-05-16T16:53:44.737Z,12.8
2023-05-16T17:13:45.691Z,12.6
2023-05-16T17:33:47.558Z,12.5
2023-05-16T17:43:48.250Z,12.5
2023-05-16T17:53:48.372Z,12.5
2023-05-16T18:03:54.991Z,12.3
2023-05-16T18:23:58.475Z,12.1
2023-05-16T18:33:56.953Z,12
2023-05-16T18:43:57.231Z,11.9
2023-05-16T19:03:58.805Z,11.8
2023-05-16T19:23:59.566Z,11.7
2023-05-16T19:44:00.039Z,11.5
2023-05-16T20:24:01.763Z,11.1
2023-05-16T20:44:02.993Z,11
2023-05-16T21:04:04.089Z,10.7
2023-05-16T21:24:04.900Z,10
2023-05-16T21:44:05.882Z,9.4
2023-05-16T22:44:09.026Z,8.3
2023-05-16T22:54:09.996Z,8.2
2023-05-16T23:04:10.349Z,8.1
2023-05-16T23:14:11.147Z,8.1
2023-05-16T23:24:11.480Z,8.1
2023-05-16T23:44:12.614Z,8.1
2023-05-16T23:54:12.966Z,8.1
